Time;durP1;ratioP1;P1;durP2;ratioP2;P2;SDS_P1;SDS_P2;PMS_P1;PMS_P2;Temp;Humidity;BMP_temperature;BMP_pressure;BME280_temperature;BME280_humidity;BME280_pressure;Samples;Min_cycle;Max_cycle;Signal;HPM_P1;HPM_P2
2022/06/27 00:02:28;;;;;;;;;;;;;;;19.83;100.00;100888.22;10544024;28;20260;-67
2022/06/27 00:07:31;;;;;;;;;;;;;;;19.90;100.00;100880.00;10543799;28;19928;-65
2022/06/27 00:12:35;;;;;;;;;;;;;;;19.97;100.00;100878.84;10543345;28;19934;-66
2022/06/27 00:17:40;;;;;;;;;;;;;;;19.98;100.00;100879.69;10543262;28;19936;-66
2022/06/27 00:22:43;;;;;;;;;;;;;;;19.98;100.00;100877.06;10543128;28;19924;-64
2022/06/27 00:27:46;;;;;;;;;;;;;;;19.96;100.00;100873.63;10590947;27;19933;-67
2022/06/27 00:32:51;;;;;;;;;;;;;;;19.96;100.00;100876.25;10627603;27;19934;-65
2022/06/27 00:37:53;;;;;;;;;;;;;;;19.91;100.00;100880.88;10627183;27;19945;-65
2022/06/27 00:42:56;;;;;;;;;;;;;;;19.92;100.00;100879.94;10627047;27;19929;-63
2022/06/27 00:48:01;;;;;;;;;;;;;;;19.91;100.00;100880.88;10627016;27;19972;-63
2022/06/27 00:53:04;;;;;;;;;;;;;;;19.85;100.00;100881.97;10626498;27;19928;-65
2022/06/27 00:58:07;;;;;;;;;;;;;;;19.86;100.00;100888.09;10626361;27;20364;-62
2022/06/27 01:03:11;;;;;;;;;;;;;;;19.87;100.00;100874.84;10626450;27;19927;-66
2022/06/27 01:08:14;;;;;;;;;;;;;;;19.82;100.00;100876.81;10625926;27;19923;-65
2022/06/27 01:13:18;;;;;;;;;;;;;;;19.83;100.00;100881.16;10626260;27;19929;-68
2022/06/27 01:18:22;;;;;;;;;;;;;;;19.81;100.00;100877.72;10625479;27;19923;-64
2022/06/27 01:23:27;;;;;;;;;;;;;;;19.78;100.00;100867.31;10625302;27;20397;-67
2022/06/27 01:28:30;;;;;;;;;;;;;;;19.75;100.00;100871.84;10625343;27;19923;-65
2022/06/27 01:33:33;;;;;;;;;;;;;;;19.71;100.00;100884.28;10602778;27;19928;-68
2022/06/27 01:38:37;;;;;;;;;;;;;;;19.71;100.00;100873.72;10582308;28;19923;-64
2022/06/27 01:43:40;;;;;;;;;;;;;;;19.70;100.00;100871.16;10582014;28;19939;-67
2022/06/27 01:48:43;;;;;;;;;;;;;;;19.65;100.00;100870.50;10582882;28;19968;-66
2022/06/27 01:53:51;;;;;;;;;;;;;;;19.64;100.00;100867.00;10584268;28;20408;-65
2022/06/27 01:58:57;;;;;;;;;;;;;;;19.62;100.00;100867.97;10585025;28;19923;-70
2022/06/27 02:04:00;;;;;;;;;;;;;;;19.63;100.00;100869.69;10584953;28;20379;-68
2022/06/27 02:09:05;;;;;;;;;;;;;;;19.59;100.00;100876.84;10585029;28;20003;-65
2022/06/27 02:14:09;;;;;;;;;;;;;;;19.56;100.00;100879.59;10584566;28;19924;-65
2022/06/27 02:19:13;;;;;;;;;;;;;;;19.52;100.00;100880.63;10588988;28;19924;-67
2022/06/27 02:24:18;;;;;;;;;;;;;;;19.50;100.00;100879.81;10593264;28;19945;-67
2022/06/27 02:29:21;;;;;;;;;;;;;;;19.50;100.00;100885.09;10593109;28;19924;-64
2022/06/27 02:34:24;;;;;;;;;;;;;;;19.47;100.00;100885.22;10592965;28;19927;-68
2022/06/27 02:39:31;;;;;;;;;;;;;;;19.46;100.00;100887.00;10592607;28;19923;-64
2022/06/27 02:44:34;;;;;;;;;;;;;;;19.45;100.00;100887.03;10592522;28;19946;-66
2022/06/27 02:49:37;;;;;;;;;;;;;;;19.42;100.00;100898.56;10592193;28;19930;-67
2022/06/27 02:54:43;;;;;;;;;;;;;;;19.45;100.00;100893.19;10591900;28;20323;-66
2022/06/27 02:59:49;;;;;;;;;;;;;;;19.42;100.00;100895.06;10591627;28;20011;-68
2022/06/27 03:04:52;;;;;;;;;;;;;;;19.48;100.00;100900.13;10591457;28;19930;-64
2022/06/27 03:10:01;;;;;;;;;;;;;;;19.51;100.00;100903.50;10591325;28;19924;-67
2022/06/27 03:15:04;;;;;;;;;;;;;;;19.57;100.00;100907.66;10591178;28;19924;-66
2022/06/27 03:20:08;;;;;;;;;;;;;;;19.60;100.00;100906.69;10591061;28;19924;-63
2022/06/27 03:25:12;;;;;;;;;;;;;;;19.65;100.00;100907.38;10590749;28;19934;-66
2022/06/27 03:30:15;;;;;;;;;;;;;;;19.70;100.00;100905.41;10589191;28;20351;-66
2022/06/27 03:35:18;;;;;;;;;;;;;;;19.72;100.00;100907.06;10590481;28;19934;-67
2022/06/27 03:40:22;;;;;;;;;;;;;;;19.74;100.00;100913.16;10590427;28;19934;-64
2022/06/27 03:45:30;;;;;;;;;;;;;;;19.77;100.00;100905.13;10589799;28;19930;-65
2022/06/27 03:50:33;;;;;;;;;;;;;;;19.83;100.00;100918.03;10589617;28;20227;-64
2022/06/27 03:55:38;;;;;;;;;;;;;;;19.89;100.00;100902.00;10589619;28;20227;-66
2022/06/27 04:00:41;;;;;;;;;;;;;;;19.94;100.00;100905.31;10589261;28;19923;-65
2022/06/27 04:05:44;;;;;;;;;;;;;;;19.95;100.00;100901.75;10589230;28;20022;-66
2022/06/27 04:10:48;;;;;;;;;;;;;;;20.03;100.00;100898.81;10588892;28;19923;-66
2022/06/27 04:15:51;;;;;;;;;;;;;;;20.14;100.00;100905.38;10588751;28;19924;-64
2022/06/27 04:20:54;;;;;;;;;;;;;;;20.17;100.00;100905.25;10588573;28;19924;-66
2022/06/27 04:25:59;;;;;;;;;;;;;;;20.26;100.00;100898.78;10588174;28;19923;-67
2022/06/27 04:31:02;;;;;;;;;;;;;;;20.34;100.00;100891.41;10587821;28;20404;-64
2022/06/27 04:36:05;;;;;;;;;;;;;;;20.46;100.00;100901.44;10587821;28;19923;-68
2022/06/27 04:41:10;;;;;;;;;;;;;;;20.57;100.00;100900.06;10587133;28;19931;-67
2022/06/27 04:46:13;;;;;;;;;;;;;;;20.63;100.00;100899.81;10587384;28;19934;-66
2022/06/27 04:51:16;;;;;;;;;;;;;;;20.78;100.00;100908.00;10587226;28;19966;-66
2022/06/27 04:56:20;;;;;;;;;;;;;;;20.87;100.00;100902.31;10587266;28;20265;-65
2022/06/27 05:01:23;;;;;;;;;;;;;;;20.98;100.00;100905.34;10586666;28;20014;-66
2022/06/27 05:06:26;;;;;;;;;;;;;;;21.08;100.00;100907.56;10586612;28;19924;-63
2022/06/27 05:11:31;;;;;;;;;;;;;;;21.18;100.00;100906.22;10586239;28;19928;-64
2022/06/27 05:16:34;;;;;;;;;;;;;;;21.32;100.00;100902.94;10585844;28;19924;-66
2022/06/27 05:21:37;;;;;;;;;;;;;;;21.45;100.00;100917.31;10585843;28;19924;-63
2022/06/27 05:26:42;;;;;;;;;;;;;;;21.54;100.00;100917.75;10585932;28;19930;-64
2022/06/27 05:31:45;;;;;;;;;;;;;;;21.63;100.00;100929.66;10586279;28;19928;-63
2022/06/27 05:36:48;;;;;;;;;;;;;;;21.78;99.46;100937.78;10585411;28;19924;-64
2022/06/27 05:41:53;;;;;;;;;;;;;;;21.90;98.30;100938.13;10585149;28;19923;-64
2022/06/27 05:46:56;;;;;;;;;;;;;;;21.99;97.56;100942.97;10585062;28;19924;-66
2022/06/27 05:51:59;;;;;;;;;;;;;;;22.07;97.06;100939.03;10584843;28;19934;-65
2022/06/27 05:57:05;;;;;;;;;;;;;;;22.12;96.53;100942.34;10584900;28;19988;-64
2022/06/27 06:02:09;;;;;;;;;;;;;;;22.25;94.83;100935.50;10584391;28;19924;-64
2022/06/27 06:07:12;;;;;;;;;;;;;;;22.36;94.78;100941.13;10584668;28;19924;-67
2022/06/27 06:12:18;;;;;;;;;;;;;;;22.43;94.46;100939.91;10583879;28;20315;-66
2022/06/27 06:17:21;;;;;;;;;;;;;;;22.57;93.69;100940.09;10584679;28;19924;-67
2022/06/27 06:22:24;;;;;;;;;;;;;;;22.81;90.64;100943.31;10585042;28;19946;-64
2022/06/27 06:27:29;;;;;;;;;;;;;;;22.90;90.60;100945.47;10583776;28;19923;-64
2022/06/27 06:32:34;;;;;;;;;;;;;;;23.03;88.69;100956.28;10584547;28;20389;-68
2022/06/27 06:37:39;;;;;;;;;;;;;;;23.13;89.00;100954.88;10583214;28;19924;-67
2022/06/27 06:42:45;;;;;;;;;;;;;;;23.18;90.91;100955.47;10583978;28;19934;-66
2022/06/27 06:47:49;;;;;;;;;;;;;;;23.22;95.22;100951.75;10583280;28;20015;-66
2022/06/27 06:52:52;;;;;;;;;;;;;;;23.41;90.98;100953.38;10583601;28;19923;-65
2022/06/27 06:57:57;;;;;;;;;;;;;;;23.63;88.05;100951.28;10583205;28;19972;-66
2022/06/27 07:03:01;;;;;;;;;;;;;;;23.75;87.66;100952.41;10581480;28;19938;-66
2022/06/27 07:08:05;;;;;;;;;;;;;;;23.87;86.47;100949.94;10234651;27;10000083;-63
2022/06/27 07:13:10;;;;;;;;;;;;;;;24.05;84.05;100953.41;10588158;28;20419;-64
2022/06/27 07:18:14;;;;;;;;;;;;;;;24.08;84.44;100953.22;10587355;28;19928;-63
2022/06/27 07:23:17;;;;;;;;;;;;;;;24.17;83.24;100950.06;10587397;28;19966;-63
2022/06/27 07:28:26;;;;;;;;;;;;;;;24.34;80.68;100943.78;10587106;28;19924;-66
2022/06/27 07:33:29;;;;;;;;;;;;;;;24.34;81.62;100939.34;10587148;28;19946;-65
2022/06/27 07:38:36;;;;;;;;;;;;;;;24.57;79.62;100936.22;10586967;28;19930;-63
2022/06/27 07:43:40;;;;;;;;;;;;;;;24.69;78.78;100934.66;10586527;28;19924;-64
2022/06/27 07:48:44;;;;;;;;;;;;;;;24.77;78.31;100932.41;10586209;28;19923;-65
2022/06/27 07:53:48;;;;;;;;;;;;;;;25.02;75.69;100927.34;10586274;28;19923;-65
2022/06/27 07:58:52;;;;;;;;;;;;;;;25.04;75.54;100926.28;10586189;28;19924;-65
2022/06/27 08:03:56;;;;;;;;;;;;;;;25.13;75.13;100918.72;10585795;28;20380;-65
2022/06/27 08:09:00;;;;;;;;;;;;;;;25.32;71.16;100922.78;10585692;28;19936;-65
2022/06/27 08:14:07;;;;;;;;;;;;;;;25.55;68.46;100919.59;10585561;28;20408;-65
2022/06/27 08:19:11;;;;;;;;;;;;;;;25.72;65.01;100911.41;10584326;28;19923;-65
2022/06/27 08:24:16;;;;;;;;;;;;;;;25.81;63.91;100908.16;10585112;28;20383;-64
2022/06/27 08:29:21;;;;;;;;;;;;;;;26.00;62.15;100903.38;10584463;28;20574;-67
2022/06/27 08:34:24;;;;;;;;;;;;;;;26.05;62.76;100905.75;10584929;28;20255;-63
2022/06/27 08:39:28;;;;;;;;;;;;;;;26.17;62.49;100900.50;10583853;28;19934;-67
2022/06/27 08:44:32;;;;;;;;;;;;;;;26.24;63.78;100892.94;10583876;28;20278;-66
2022/06/27 08:49:37;;;;;;;;;;;;;;;26.34;63.61;100891.38;10584034;28;19924;-65
2022/06/27 08:54:40;;;;;;;;;;;;;;;26.54;61.43;100885.56;10583573;28;19924;-65
2022/06/27 08:59:45;;;;;;;;;;;;;;;26.53;62.21;100875.00;10582937;28;19928;-67
2022/06/27 09:04:57;;;;;;;;;;;;;;;26.44;63.17;100868.50;10583864;28;20240;-61
2022/06/27 09:10:22;;;;;;;;;;;;;;;26.57;63.68;100876.53;10585770;27;19923;-66
2022/06/27 09:15:28;;;;;;;;;;;;;;;26.69;59.37;100871.25;10624166;27;19923;-66
2022/06/27 09:20:45;;;;;;;;;;;;;;;26.19;63.00;100879.97;10582884;28;19969;-66
2022/06/27 09:25:57;;;;;;;;;;;;;;;26.45;60.54;100870.22;10582404;28;20012;-66
2022/06/27 09:31:01;;;;;;;;;;;;;;;26.98;57.26;100875.41;10581989;28;19951;-67
2022/06/27 09:36:09;;;;;;;;;;;;;;;27.36;57.46;100875.41;10581981;28;19924;-63
2022/06/27 09:41:13;;;;;;;;;;;;;;;27.17;59.47;100874.97;10582124;28;19946;-65
2022/06/27 09:46:18;;;;;;;;;;;;;;;27.15;56.19;100864.44;10582100;28;20227;-66
2022/06/27 09:51:21;;;;;;;;;;;;;;;27.08;58.99;100863.16;10581835;28;20338;-61
2022/06/27 09:56:28;;;;;;;;;;;;;;;27.18;60.18;100855.38;10581751;28;19939;-63
2022/06/27 10:01:33;;;;;;;;;;;;;;;27.42;60.92;100858.13;10581581;28;20242;-62
2022/06/27 10:06:37;;;;;;;;;;;;;;;27.47;61.57;100858.66;10580835;28;19935;-60
2022/06/27 10:11:40;;;;;;;;;;;;;;;27.51;61.81;100855.63;10581493;28;19924;-62
2022/06/27 10:16:54;;;;;;;;;;;;;;;28.69;55.45;100863.66;10580665;28;20268;-64
2022/06/27 10:21:57;;;;;;;;;;;;;;;29.11;52.49;100849.63;10581086;28;20062;-64
2022/06/27 10:27:03;;;;;;;;;;;;;;;29.02;52.36;100844.16;10581062;28;19924;-69
2022/06/27 10:32:08;;;;;;;;;;;;;;;29.11;52.68;100838.13;10580872;28;19924;-68
2022/06/27 10:37:34;;;;;;;;;;;;;;;29.82;50.57;100833.16;10581196;28;19923;-69
2022/06/27 10:42:46;;;;;;;;;;;;;;;30.86;49.39;100829.66;10587719;28;20360;-67
2022/06/27 10:47:51;;;;;;;;;;;;;;;31.52;49.09;100813.00;10589089;28;20405;-66
2022/06/27 10:53:09;;;;;;;;;;;;;;;31.68;47.83;100801.72;10589178;27;20269;-67
2022/06/27 10:58:20;;;;;;;;;;;;;;;31.38;48.44;100801.78;10588215;28;19936;-67
2022/06/27 11:03:25;;;;;;;;;;;;;;;32.24;47.10;100793.81;10588489;27;20278;-66
2022/06/27 11:08:29;;;;;;;;;;;;;;;32.64;47.05;100787.28;10562185;28;19928;-71
2022/06/27 11:13:43;;;;;;;;;;;;;;;33.44;42.56;100792.97;10589996;28;19924;-63
2022/06/27 11:18:48;;;;;;;;;;;;;;;33.74;41.81;100776.44;10590629;28;19923;-64
2022/06/27 11:23:52;;;;;;;;;;;;;;;34.09;41.64;100782.84;10556720;28;19928;-67
2022/06/27 11:34:18;;;;;;;;;;;;;;;34.88;40.28;100757.44;10558874;28;19924;-66
2022/06/27 11:39:24;;;;;;;;;;;;;;;35.04;40.82;100754.84;10551291;28;19924;-67
2022/06/27 11:44:27;;;;;;;;;;;;;;;35.38;40.30;100749.41;10588324;28;19985;-64
2022/06/27 11:49:32;;;;;;;;;;;;;;;35.78;38.54;100739.53;10579174;28;19936;-64
2022/06/27 11:54:39;;;;;;;;;;;;;;;35.90;34.57;100748.19;10585378;28;20266;-67
2022/06/27 11:59:48;;;;;;;;;;;;;;;35.69;34.37;100750.53;10551849;28;20218;-68
2022/06/27 12:05:01;;;;;;;;;;;;;;;36.23;35.09;100735.50;10546868;28;20015;-65
2022/06/27 12:10:05;;;;;;;;;;;;;;;36.47;34.38;100730.91;10567767;28;19943;-67
2022/06/27 12:15:19;;;;;;;;;;;;;;;36.69;34.64;100723.94;10586204;28;19930;-65
2022/06/27 12:20:24;;;;;;;;;;;;;;;36.53;34.66;100719.44;10560017;28;19928;-65
2022/06/27 12:25:27;;;;;;;;;;;;;;;36.15;36.29;100720.13;10542887;28;20018;-65
2022/06/27 12:30:30;;;;;;;;;;;;;;;36.31;36.33;100717.38;10545073;28;19928;-66
2022/06/27 12:35:34;;;;;;;;;;;;;;;36.30;37.20;100722.97;10545883;28;19924;-64
2022/06/27 12:40:37;;;;;;;;;;;;;;;36.19;37.04;100717.94;10545439;28;19930;-65
2022/06/27 12:45:40;;;;;;;;;;;;;;;36.19;37.52;100709.81;10545437;28;19924;-64
2022/06/27 12:50:45;;;;;;;;;;;;;;;35.99;36.39;100712.03;10545082;28;20305;-63
2022/06/27 12:55:49;;;;;;;;;;;;;;;35.88;37.41;100707.81;10544748;28;19924;-64
2022/06/27 13:00:52;;;;;;;;;;;;;;;35.99;37.44;100703.91;10544836;28;19957;-63
2022/06/27 13:05:56;;;;;;;;;;;;;;;36.24;37.66;100705.59;10544028;28;19924;-66
2022/06/27 13:10:59;;;;;;;;;;;;;;;36.24;37.78;100697.47;10544305;28;19981;-65
2022/06/27 13:16:02;;;;;;;;;;;;;;;36.17;36.11;100701.88;10544245;28;19981;-66
2022/06/27 13:21:07;;;;;;;;;;;;;;;35.93;36.17;100700.03;10543748;28;20266;-66
2022/06/27 13:26:10;;;;;;;;;;;;;;;36.04;37.41;100693.44;10543719;28;19924;-64
2022/06/27 13:31:13;;;;;;;;;;;;;;;35.95;37.23;100681.78;10541824;28;19928;-65
2022/06/27 13:36:17;;;;;;;;;;;;;;;36.08;35.08;100686.69;10539994;28;19924;-65
2022/06/27 13:41:20;;;;;;;;;;;;;;;35.93;36.32;100691.09;10212636;27;10000116;-64
2022/06/27 13:46:23;;;;;;;;;;;;;;;35.76;35.77;100690.22;10582331;28;20345;-67
2022/06/27 13:51:33;;;;;;;;;;;;;;;35.66;36.15;100689.53;10582119;28;19927;-64
2022/06/27 13:56:36;;;;;;;;;;;;;;;35.52;36.68;100692.91;10581975;28;19928;-66
2022/06/27 14:01:39;;;;;;;;;;;;;;;35.53;38.27;100686.50;10581714;28;19949;-67
2022/06/27 14:12:05;;;;;;;;;;;;;;;35.66;37.74;100684.13;10580770;28;20018;-66
2022/06/27 14:17:08;;;;;;;;;;;;;;;35.41;37.12;100684.28;10588522;28;19923;-67
2022/06/27 14:22:12;;;;;;;;;;;;;;;35.28;37.85;100676.63;10589595;28;20357;-66
2022/06/27 14:27:17;;;;;;;;;;;;;;;34.90;38.46;100672.63;10589583;28;20314;-67
2022/06/27 14:32:21;;;;;;;;;;;;;;;34.97;39.28;100671.97;10589041;28;19931;-62
2022/06/27 14:37:25;;;;;;;;;;;;;;;34.80;38.94;100682.72;10589270;28;19928;-62
2022/06/27 14:42:31;;;;;;;;;;;;;;;34.53;38.80;100679.38;10594942;27;19950;-65
2022/06/27 14:47:34;;;;;;;;;;;;;;;34.58;39.50;100677.03;10589401;28;20407;-66
2022/06/27 14:52:38;;;;;;;;;;;;;;;34.42;39.24;100676.91;10588902;28;19923;-67
2022/06/27 14:57:42;;;;;;;;;;;;;;;34.24;39.63;100670.75;10588440;28;20377;-65
2022/06/27 15:02:45;;;;;;;;;;;;;;;34.17;41.49;100667.84;10588405;28;19924;-65
2022/06/27 15:07:49;;;;;;;;;;;;;;;34.08;40.13;100676.03;10588308;27;20597;-65
2022/06/27 15:12:52;;;;;;;;;;;;;;;33.85;40.49;100667.59;10588037;28;19930;-66
2022/06/27 15:17:56;;;;;;;;;;;;;;;33.74;41.35;100668.69;10588435;28;20249;-63
2022/06/27 15:23:00;;;;;;;;;;;;;;;33.58;39.96;100668.53;10587472;27;19923;-65
2022/06/27 15:28:04;;;;;;;;;;;;;;;33.30;40.29;100660.66;10587680;28;20318;-66
2022/06/27 15:33:07;;;;;;;;;;;;;;;33.20;41.31;100660.75;10587695;28;20387;-66
2022/06/27 15:38:12;;;;;;;;;;;;;;;33.06;41.13;100655.03;10587046;28;19924;-63
2022/06/27 15:43:15;;;;;;;;;;;;;;;32.97;41.23;100659.47;10587028;28;19924;-65
2022/06/27 15:48:18;;;;;;;;;;;;;;;32.99;41.21;100664.69;10586711;28;20014;-65
2022/06/27 15:53:22;;;;;;;;;;;;;;;32.71;41.25;100661.16;10586505;28;20346;-66
2022/06/27 15:58:25;;;;;;;;;;;;;;;32.58;40.74;100648.03;10586274;28;19927;-69
2022/06/27 16:03:29;;;;;;;;;;;;;;;32.48;41.74;100649.09;10585986;28;19930;-66
2022/06/27 16:08:33;;;;;;;;;;;;;;;32.36;42.55;100647.53;10586043;28;19931;-66
2022/06/27 16:13:37;;;;;;;;;;;;;;;32.18;42.96;100654.69;10585662;28;20339;-65
2022/06/27 16:18:40;;;;;;;;;;;;;;;32.05;42.56;100649.63;10557714;28;20371;-65
2022/06/27 16:23:44;;;;;;;;;;;;;;;31.89;43.21;100651.22;10543111;28;20441;-65
2022/06/27 16:28:47;;;;;;;;;;;;;;;31.77;42.92;100652.34;10542521;28;19949;-65
2022/06/27 16:33:50;;;;;;;;;;;;;;;31.60;42.83;100649.38;10542400;28;19927;-65
2022/06/27 16:38:55;;;;;;;;;;;;;;;31.41;43.42;100652.06;10551884;27;20353;-63
2022/06/27 16:43:58;;;;;;;;;;;;;;;29.18;63.81;100660.16;10626169;27;19934;-65
2022/06/27 16:49:01;;;;;;;;;;;;;;;26.45;79.55;100664.31;10627088;27;19923;-66
2022/06/27 16:54:07;;;;;;;;;;;;;;;26.28;73.65;100670.84;10626601;27;19930;-68
2022/06/27 16:59:10;;;;;;;;;;;;;;;26.29;64.54;100675.19;10626297;27;20022;-65
2022/06/27 17:04:14;;;;;;;;;;;;;;;26.33;61.29;100671.38;10626403;27;19932;-67
2022/06/27 17:09:18;;;;;;;;;;;;;;;26.39;61.11;100670.09;10625890;27;19923;-65
2022/06/27 17:14:21;;;;;;;;;;;;;;;26.40;60.02;100671.78;10626064;27;19924;-66
2022/06/27 17:19:24;;;;;;;;;;;;;;;26.47;59.30;100665.06;10626028;27;20359;-65
2022/06/27 17:24:28;;;;;;;;;;;;;;;26.60;59.54;100664.09;10625454;27;19927;-64
2022/06/27 17:29:31;;;;;;;;;;;;;;;26.57;60.07;100658.13;10625388;27;20265;-64
2022/06/27 17:34:34;;;;;;;;;;;;;;;26.62;61.55;100656.84;10625034;27;20264;-65
2022/06/27 17:39:38;;;;;;;;;;;;;;;26.64;62.00;100657.59;10613617;27;20282;-64
2022/06/27 17:44:41;;;;;;;;;;;;;;;26.73;60.75;100661.44;10582237;28;20334;-63
2022/06/27 17:49:44;;;;;;;;;;;;;;;26.73;61.96;100653.47;10581094;28;20246;-68
2022/06/27 17:54:49;;;;;;;;;;;;;;;26.79;61.18;100659.19;10582041;28;19963;-66
2022/06/27 17:59:53;;;;;;;;;;;;;;;26.78;62.16;100662.81;10581746;28;19990;-66
2022/06/27 18:04:55;;;;;;;;;;;;;;;26.70;63.34;100666.97;10581627;28;19924;-66
2022/06/27 18:10:00;;;;;;;;;;;;;;;26.68;62.38;100664.41;10581652;28;20245;-63
2022/06/27 18:15:03;;;;;;;;;;;;;;;26.62;62.68;100678.16;10581373;28;19958;-66
2022/06/27 18:20:09;;;;;;;;;;;;;;;26.54;62.64;100688.47;10580733;28;19924;-65
2022/06/27 18:25:14;;;;;;;;;;;;;;;26.41;63.98;100685.00;10581265;28;19923;-68
2022/06/27 18:30:18;;;;;;;;;;;;;;;26.34;63.55;100689.03;10581069;28;19937;-64
2022/06/27 18:35:41;;;;;;;;;;;;;;;26.29;63.73;100700.97;10581520;28;19924;-65
2022/06/27 18:40:45;;;;;;;;;;;;;;;26.20;64.34;100703.31;10601227;28;19938;-67
2022/06/27 18:45:48;;;;;;;;;;;;;;;26.09;64.84;100705.84;10623409;27;19923;-63
2022/06/27 18:50:51;;;;;;;;;;;;;;;26.00;65.02;100722.44;10623459;27;19934;-66
2022/06/27 18:55:55;;;;;;;;;;;;;;;25.29;74.56;100723.66;10623138;27;19937;-66
2022/06/27 19:00:58;;;;;;;;;;;;;;;24.92;75.33;100730.47;10626131;27;19927;-63
2022/06/27 19:06:02;;;;;;;;;;;;;;;24.90;74.41;100736.84;10631185;27;19924;-64
2022/06/27 19:11:06;;;;;;;;;;;;;;;25.04;73.32;100740.31;10630768;27;20262;-63
2022/06/27 19:16:09;;;;;;;;;;;;;;;25.16;72.17;100745.81;10631248;27;19935;-64
2022/06/27 19:21:13;;;;;;;;;;;;;;;25.19;70.54;100753.56;10630544;27;20253;-64
2022/06/27 19:26:17;;;;;;;;;;;;;;;25.14;69.91;100760.03;10630227;27;20447;-64
2022/06/27 19:31:20;;;;;;;;;;;;;;;25.08;69.79;100757.78;10630270;27;19934;-63
2022/06/27 19:36:23;;;;;;;;;;;;;;;25.02;69.83;100763.47;10629703;27;19938;-63
2022/06/27 19:41:27;;;;;;;;;;;;;;;24.96;71.51;100763.88;10603363;27;19934;-63
2022/06/27 19:46:31;;;;;;;;;;;;;;;24.90;71.80;100766.06;10586907;28;20347;-65
2022/06/27 19:51:34;;;;;;;;;;;;;;;24.83;71.91;100762.91;10586724;28;19971;-64
2022/06/27 19:56:39;;;;;;;;;;;;;;;24.77;72.29;100757.13;10586605;28;19923;-65
2022/06/27 20:01:42;;;;;;;;;;;;;;;24.70;72.63;100755.81;10586164;28;19930;-64
2022/06/27 20:06:45;;;;;;;;;;;;;;;24.63;73.28;100765.06;10585933;28;20370;-64
2022/06/27 20:11:49;;;;;;;;;;;;;;;24.55;73.24;100760.25;10585070;28;19930;-63
2022/06/27 20:16:54;;;;;;;;;;;;;;;24.53;74.36;100763.91;10585482;28;20259;-65
2022/06/27 20:21:57;;;;;;;;;;;;;;;24.48;74.11;100766.88;10585132;28;20008;-66
2022/06/27 20:27:02;;;;;;;;;;;;;;;24.43;73.84;100760.97;10585852;28;19923;-64
2022/06/27 20:32:06;;;;;;;;;;;;;;;24.38;75.13;100764.84;10585080;28;19927;-66
2022/06/27 20:37:09;;;;;;;;;;;;;;;24.32;75.55;100750.16;10585238;28;19923;-65
2022/06/27 20:42:13;;;;;;;;;;;;;;;24.31;75.13;100758.22;10617334;27;19937;-62
2022/06/27 20:47:16;;;;;;;;;;;;;;;24.27;75.06;100748.72;10627523;27;19924;-64
2022/06/27 20:52:20;;;;;;;;;;;;;;;24.24;74.35;100747.13;10626937;27;20258;-64
2022/06/27 20:57:24;;;;;;;;;;;;;;;24.21;74.80;100742.00;10626707;27;19923;-65
2022/06/27 21:02:27;;;;;;;;;;;;;;;24.19;73.87;100741.22;10626368;27;19923;-65
2022/06/27 21:11:47;;;;;;;;;;;;;;;24.18;74.56;100742.16;10626554;27;19927;-67
2022/06/27 21:12:56;;;;;;;;;;;;;;;24.08;75.42;100734.84;10626070;27;20349;-63
2022/06/27 21:18:00;;;;;;;;;;;;;;;23.98;75.78;100738.03;10626084;27;19934;-64
2022/06/27 21:23:03;;;;;;;;;;;;;;;23.89;76.08;100740.34;10624583;27;19934;-66
2022/06/27 21:28:07;;;;;;;;;;;;;;;23.81;77.79;100737.31;10625609;27;19942;-63
2022/06/27 21:33:11;;;;;;;;;;;;;;;23.75;79.05;100743.81;10625611;27;20495;-65
2022/06/27 21:38:14;;;;;;;;;;;;;;;23.70;78.35;100742.38;10625222;27;19927;-65
2022/06/27 21:43:19;;;;;;;;;;;;;;;23.68;77.81;100733.66;10582628;27;19930;-66
2022/06/27 21:48:22;;;;;;;;;;;;;;;23.59;78.57;100736.84;10582384;28;19923;-63
2022/06/27 21:53:25;;;;;;;;;;;;;;;23.51;79.65;100741.72;10582603;28;19938;-65
2022/06/27 21:58:30;;;;;;;;;;;;;;;23.53;79.78;100731.88;10585161;28;20343;-66
2022/06/27 22:03:33;;;;;;;;;;;;;;;23.57;79.05;100730.78;10585329;28;19924;-66
2022/06/27 22:08:37;;;;;;;;;;;;;;;23.52;78.49;100733.66;10584661;28;19956;-65
2022/06/27 22:13:41;;;;;;;;;;;;;;;23.51;79.69;100734.63;10584544;28;20228;-65
2022/06/27 22:18:44;;;;;;;;;;;;;;;23.46;79.80;100736.69;10584547;28;19924;-67
2022/06/27 22:23:47;;;;;;;;;;;;;;;23.38;81.04;100738.06;10584305;28;20250;-67
2022/06/27 22:28:52;;;;;;;;;;;;;;;23.31;81.97;100734.06;10584751;28;19934;-63
2022/06/27 22:33:56;;;;;;;;;;;;;;;23.26;82.07;100733.44;10584401;28;20011;-68
2022/06/27 22:38:59;;;;;;;;;;;;;;;23.22;81.75;100735.38;10592443;28;19934;-66
2022/06/27 22:44:11;;;;;;;;;;;;;;;23.19;81.60;100732.06;10592720;28;19924;-67
2022/06/27 22:49:14;;;;;;;;;;;;;;;23.13;83.20;100727.94;10593126;28;20250;-66
2022/06/27 22:54:17;;;;;;;;;;;;;;;23.10;83.33;100724.63;10592784;28;19924;-66
2022/06/27 22:59:23;;;;;;;;;;;;;;;23.07;82.96;100714.19;10592030;28;20346;-68
2022/06/27 23:04:26;;;;;;;;;;;;;;;23.04;82.36;100712.56;10591996;28;19928;-69
2022/06/27 23:09:29;;;;;;;;;;;;;;;23.01;83.39;100717.19;10591671;28;19923;-62
2022/06/27 23:14:33;;;;;;;;;;;;;;;22.97;84.04;100699.78;10591535;28;19923;-64
2022/06/27 23:19:36;;;;;;;;;;;;;;;22.93;83.44;100699.91;10591214;28;20255;-66
2022/06/27 23:24:39;;;;;;;;;;;;;;;22.90;84.52;100700.09;10590938;28;19934;-66
2022/06/27 23:29:44;;;;;;;;;;;;;;;22.90;84.60;100705.38;10590935;28;20030;-68
2022/06/27 23:34:47;;;;;;;;;;;;;;;22.84;85.34;100710.16;10591045;28;19923;-66
2022/06/27 23:39:50;;;;;;;;;;;;;;;22.80;85.83;100701.53;10590541;28;19961;-68
2022/06/27 23:44:54;;;;;;;;;;;;;;;22.74;86.69;100707.16;10589848;28;20254;-66
2022/06/27 23:49:57;;;;;;;;;;;;;;;22.66;87.31;100704.06;10588780;28;19923;-64
2022/06/27 23:55:01;;;;;;;;;;;;;;;22.61;87.68;100714.06;10589665;28;19924;-65
